HEYO2: Heyburn Lake

Data processed at Sat Mar 10 2018 23:36


All information presented herein is the property of the government of the United States of America and may be revised or deleted at any time without prior notice.
Dissemination of this information without the expressed written consent of the Public Affairs Office, Tulsa District U.S. Army Corps of Engineers is strictly prohibited.
These data are gathered electronically and, as presented, have not undergone any form of quality control. These data are not guaranteed to be valid or correct.
Go to home page.
Go to station list.

Downstream station:


Previous Day
Next Day
Current Day
    
SHEF ID:       HEYO2     Heyburn Lake
STATION TYPE:  RESERVOIR
Normal Pool:  Bottom =   755.50, Top =   761.50

               PRECIP  RIV-FLOW ELEVATION   STORAGE    INFLOW   RELEASE  AIR-TEMP  WIND-DIRWIND-SPEED REL-HUMID SOLAR-RAD   VOLTAGE  BAT-LOAD
                   in       cfs        ft     ac-ft       cfs       cfs         F       deg       mph         %      W/m2      volt      volt
              Ccp-Rev  Regi-Rev   Ccp-Rev   Ccp-Rev  Regi-Rev  Regi-Rev   Ccp-Rev   Ccp-Rev   Ccp-Rev   Ccp-Rev   Ccp-Rev   Ccp-Rev   Ccp-Rev
(US/Central)
03/08 00:00      0.00      ----    761.81      5723         0        18     34.72    359.80      2.60     72.27      0.00     12.77     12.57
03/08 01:00      0.00      ----    761.80      5716         0        18     33.60    359.80      2.30     75.99      0.00     12.73     12.57
03/08 02:00      0.00      ----    761.80      5716         0        18     33.24      0.20      3.40     80.08      0.00     12.70     12.57
03/08 03:00      0.00      ----    761.80      5716         0        18     32.56    359.90      2.90     82.88      0.00     12.67     12.49
03/08 04:00      0.00      ----    761.80      5716         0        18     29.66    352.30      1.40     83.80      0.00     12.65     12.49
03/08 05:00      0.00      ----    761.80      5716         0        18     29.07    359.80      1.40     80.66      0.00     12.63     12.41
03/08 06:00      0.00      ----    761.79      5709         0        17     28.04    359.70      1.10     84.31      0.00     12.62     12.41
03/08 07:00      0.00      ----    761.79      5709         0        17     26.80    321.00      0.90     91.06      1.60     12.65     12.41
03/08 08:00      0.00      ----    761.79      5709         0        17     31.15    350.50      0.90     87.35    120.60     14.20     12.41
03/08 09:00      0.00      ----    761.78      5702         0        16     35.40    348.80      1.70     69.65    263.30     13.66     13.44
03/08 10:00      0.00      ----    761.78      5702         1        16     41.67    285.40      2.40     44.84    441.80     13.59     13.84
03/08 11:00      0.00      ----    761.78      5702         4        16     45.66    263.10      3.20     35.01    599.00     13.58     13.60
03/08 12:00      0.00      ----    761.78      5702         7        16     49.26    339.10      2.80     31.81    622.00     13.55     13.84
03/08 13:00      0.00      ----    761.78      5702        10        16     53.46    346.70      3.30     27.09    798.40     13.68     13.53
03/08 14:00      0.00      ----    761.78      5702        13        16     56.73    338.90      3.50     25.16    744.40     13.59     13.68
03/08 15:00      0.00      ----    761.78      5702        16        16     59.67    355.80      3.30     22.42    380.60     13.72     13.68
03/08 16:00      0.00      ----    761.78      5702        16        16     61.59    354.80      3.50     21.66    447.80     13.72     13.37
03/08 17:00      0.00      ----    761.78      5702        16        16     63.16    353.80      3.10     21.07    331.10     13.37     13.44
03/08 18:00      0.00      ----    761.78      5702        15        16     62.44    348.00      2.70     22.73    135.10     13.09     13.13
03/08 19:00      0.00      ----    761.78      5702        15        15     57.51    352.30      1.70     29.37      1.20     12.93     12.89
03/08 20:00      0.00      ----    761.78      5702        15        15     52.12    348.50      0.80     36.80      0.00     12.89     12.73
03/08 21:00      0.00      ----    761.78      5702        15        16     46.54    329.00      0.70     49.59      0.00     12.87     12.65
03/08 22:00      0.00      ----    761.78      5702        16        16     45.61    347.20      1.70     50.83      0.00     12.84     12.65
03/08 23:00      0.00      ----    761.78      5702        16        16     46.81    355.50      2.90     47.59      0.00     12.82     12.65